sensor_id;sensor_type;location;lat;lon;timestamp;P1;durP1;ratioP1;P2;durP2;ratioP2
68910;SDS011;55953;51.650;-0.522;2024-02-26T00:01:38;9.20;;;4.10;;
68910;SDS011;55953;51.650;-0.522;2024-02-26T00:04:06;5.80;;;3.30;;
68910;SDS011;55953;51.650;-0.522;2024-02-26T00:06:34;8.70;;;4.00;;
68910;SDS011;55953;51.650;-0.522;2024-02-26T00:09:02;6.40;;;3.90;;
68910;SDS011;55953;51.650;-0.522;2024-02-26T00:11:35;7.80;;;4.20;;
68910;SDS011;55953;51.650;-0.522;2024-02-26T00:14:04;7.30;;;4.00;;
68910;SDS011;55953;51.650;-0.522;2024-02-26T00:16:32;8.60;;;3.80;;
68910;SDS011;55953;51.650;-0.522;2024-02-26T00:19:00;8.30;;;4.20;;
68910;SDS011;55953;51.650;-0.522;2024-02-26T00:21:28;7.20;;;3.90;;
68910;SDS011;55953;51.650;-0.522;2024-02-26T00:23:56;6.30;;;4.00;;
68910;SDS011;55953;51.650;-0.522;2024-02-26T00:26:24;5.80;;;4.00;;
68910;SDS011;55953;51.650;-0.522;2024-02-26T00:28:52;7.40;;;3.70;;
68910;SDS011;55953;51.650;-0.522;2024-02-26T00:31:20;8.10;;;4.10;;
68910;SDS011;55953;51.650;-0.522;2024-02-26T00:33:48;8.20;;;3.50;;
68910;SDS011;55953;51.650;-0.522;2024-02-26T00:36:16;7.90;;;4.00;;
68910;SDS011;55953;51.650;-0.522;2024-02-26T00:38:46;7.00;;;4.10;;
68910;SDS011;55953;51.650;-0.522;2024-02-26T00:41:18;6.40;;;3.90;;
68910;SDS011;55953;51.650;-0.522;2024-02-26T00:43:46;8.80;;;4.60;;
68910;SDS011;55953;51.650;-0.522;2024-02-26T00:46:15;7.70;;;4.20;;
68910;SDS011;55953;51.650;-0.522;2024-02-26T00:48:42;7.60;;;4.10;;
68910;SDS011;55953;51.650;-0.522;2024-02-26T00:51:11;8.40;;;4.00;;
68910;SDS011;55953;51.650;-0.522;2024-02-26T00:53:39;6.90;;;3.80;;
68910;SDS011;55953;51.650;-0.522;2024-02-26T00:56:07;6.40;;;4.10;;
68910;SDS011;55953;51.650;-0.522;2024-02-26T00:58:35;6.30;;;3.70;;
68910;SDS011;55953;51.650;-0.522;2024-02-26T01:01:03;11.70;;;4.50;;
68910;SDS011;55953;51.650;-0.522;2024-02-26T01:03:31;6.60;;;3.80;;
68910;SDS011;55953;51.650;-0.522;2024-02-26T01:05:59;10.80;;;4.20;;
68910;SDS011;55953;51.650;-0.522;2024-02-26T01:08:27;7.90;;;4.20;;
68910;SDS011;55953;51.650;-0.522;2024-02-26T01:10:55;7.20;;;3.80;;
68910;SDS011;55953;51.650;-0.522;2024-02-26T01:13:23;7.60;;;4.30;;
68910;SDS011;55953;51.650;-0.522;2024-02-26T01:15:51;6.90;;;4.00;;
68910;SDS011;55953;51.650;-0.522;2024-02-26T01:18:19;6.50;;;3.70;;
68910;SDS011;55953;51.650;-0.522;2024-02-26T01:20:47;6.40;;;3.90;;
68910;SDS011;55953;51.650;-0.522;2024-02-26T01:23:15;9.50;;;4.20;;
68910;SDS011;55953;51.650;-0.522;2024-02-26T01:25:43;8.20;;;3.40;;
68910;SDS011;55953;51.650;-0.522;2024-02-26T01:28:11;8.30;;;3.50;;
68910;SDS011;55953;51.650;-0.522;2024-02-26T01:30:39;6.70;;;3.70;;
68910;SDS011;55953;51.650;-0.522;2024-02-26T01:33:07;7.80;;;3.60;;
68910;SDS011;55953;51.650;-0.522;2024-02-26T01:35:35;7.50;;;3.70;;
68910;SDS011;55953;51.650;-0.522;2024-02-26T01:38:03;7.10;;;3.80;;
68910;SDS011;55953;51.650;-0.522;2024-02-26T01:40:31;8.40;;;3.50;;
68910;SDS011;55953;51.650;-0.522;2024-02-26T01:42:59;8.40;;;3.80;;
68910;SDS011;55953;51.650;-0.522;2024-02-26T01:45:28;7.30;;;3.40;;
68910;SDS011;55953;51.650;-0.522;2024-02-26T01:47:56;8.10;;;3.50;;
68910;SDS011;55953;51.650;-0.522;2024-02-26T01:50:25;8.00;;;3.50;;
68910;SDS011;55953;51.650;-0.522;2024-02-26T01:52:54;7.50;;;3.30;;
68910;SDS011;55953;51.650;-0.522;2024-02-26T01:55:24;8.60;;;3.20;;
68910;SDS011;55953;51.650;-0.522;2024-02-26T01:57:53;7.60;;;3.40;;
68910;SDS011;55953;51.650;-0.522;2024-02-26T02:00:22;5.90;;;3.20;;
68910;SDS011;55953;51.650;-0.522;2024-02-26T02:02:50;8.20;;;3.20;;
68910;SDS011;55953;51.650;-0.522;2024-02-26T02:05:20;8.20;;;3.50;;
68910;SDS011;55953;51.650;-0.522;2024-02-26T02:07:49;5.50;;;2.50;;
68910;SDS011;55953;51.650;-0.522;2024-02-26T02:10:18;5.10;;;2.90;;
68910;SDS011;55953;51.650;-0.522;2024-02-26T02:12:51;6.20;;;3.10;;
68910;SDS011;55953;51.650;-0.522;2024-02-26T02:15:19;5.80;;;3.00;;
68910;SDS011;55953;51.650;-0.522;2024-02-26T02:17:48;6.10;;;3.20;;
68910;SDS011;55953;51.650;-0.522;2024-02-26T02:20:17;6.80;;;3.00;;
68910;SDS011;55953;51.650;-0.522;2024-02-26T02:22:46;6.20;;;3.00;;
68910;SDS011;55953;51.650;-0.522;2024-02-26T02:25:14;4.00;;;2.60;;
68910;SDS011;55953;51.650;-0.522;2024-02-26T02:27:43;6.80;;;2.70;;
68910;SDS011;55953;51.650;-0.522;2024-02-26T02:30:11;7.60;;;3.10;;
68910;SDS011;55953;51.650;-0.522;2024-02-26T02:32:40;6.80;;;2.80;;
68910;SDS011;55953;51.650;-0.522;2024-02-26T02:35:09;6.50;;;3.00;;
68910;SDS011;55953;51.650;-0.522;2024-02-26T02:37:37;8.40;;;2.80;;
68910;SDS011;55953;51.650;-0.522;2024-02-26T02:40:06;7.80;;;3.00;;
68910;SDS011;55953;51.650;-0.522;2024-02-26T02:42:34;4.30;;;2.50;;
68910;SDS011;55953;51.650;-0.522;2024-02-26T02:45:02;5.80;;;2.70;;
68910;SDS011;55953;51.650;-0.522;2024-02-26T02:47:30;5.70;;;2.60;;
68910;SDS011;55953;51.650;-0.522;2024-02-26T02:49:59;6.50;;;2.70;;
68910;SDS011;55953;51.650;-0.522;2024-02-26T02:52:26;5.80;;;2.80;;
68910;SDS011;55953;51.650;-0.522;2024-02-26T02:54:54;5.40;;;2.40;;
68910;SDS011;55953;51.650;-0.522;2024-02-26T02:57:22;6.30;;;2.50;;
68910;SDS011;55953;51.650;-0.522;2024-02-26T02:59:50;4.60;;;2.20;;
68910;SDS011;55953;51.650;-0.522;2024-02-26T03:02:18;6.90;;;2.30;;
68910;SDS011;55953;51.650;-0.522;2024-02-26T03:04:46;4.60;;;2.30;;
68910;SDS011;55953;51.650;-0.522;2024-02-26T03:07:14;5.70;;;2.20;;
68910;SDS011;55953;51.650;-0.522;2024-02-26T03:09:42;7.20;;;2.60;;
68910;SDS011;55953;51.650;-0.522;2024-02-26T03:12:10;6.60;;;2.50;;
68910;SDS011;55953;51.650;-0.522;2024-02-26T03:14:38;4.70;;;2.20;;
68910;SDS011;55953;51.650;-0.522;2024-02-26T03:17:06;6.90;;;2.20;;
68910;SDS011;55953;51.650;-0.522;2024-02-26T03:19:34;9.10;;;2.60;;
68910;SDS011;55953;51.650;-0.522;2024-02-26T03:22:02;4.80;;;2.10;;
68910;SDS011;55953;51.650;-0.522;2024-02-26T03:24:31;6.90;;;2.60;;
68910;SDS011;55953;51.650;-0.522;2024-02-26T03:26:58;5.60;;;2.60;;
68910;SDS011;55953;51.650;-0.522;2024-02-26T03:29:26;5.20;;;2.30;;
68910;SDS011;55953;51.650;-0.522;2024-02-26T03:31:54;5.50;;;2.10;;
68910;SDS011;55953;51.650;-0.522;2024-02-26T03:34:23;3.90;;;1.90;;
68910;SDS011;55953;51.650;-0.522;2024-02-26T03:36:51;6.80;;;2.20;;
68910;SDS011;55953;51.650;-0.522;2024-02-26T03:39:19;5.80;;;1.90;;
68910;SDS011;55953;51.650;-0.522;2024-02-26T03:41:47;3.20;;;1.80;;
68910;SDS011;55953;51.650;-0.522;2024-02-26T03:44:15;4.80;;;2.00;;
68910;SDS011;55953;51.650;-0.522;2024-02-26T03:46:44;4.60;;;2.10;;
68910;SDS011;55953;51.650;-0.522;2024-02-26T03:49:12;6.60;;;2.10;;
68910;SDS011;55953;51.650;-0.522;2024-02-26T03:51:41;5.10;;;1.80;;
68910;SDS011;55953;51.650;-0.522;2024-02-26T03:54:09;5.10;;;1.90;;
68910;SDS011;55953;51.650;-0.522;2024-02-26T03:56:37;5.00;;;1.90;;
68910;SDS011;55953;51.650;-0.522;2024-02-26T03:59:05;5.40;;;1.60;;
68910;SDS011;55953;51.650;-0.522;2024-02-26T04:01:33;4.90;;;2.20;;
68910;SDS011;55953;51.650;-0.522;2024-02-26T04:04:01;6.30;;;1.80;;
68910;SDS011;55953;51.650;-0.522;2024-02-26T04:06:29;3.10;;;1.80;;
68910;SDS011;55953;51.650;-0.522;2024-02-26T04:08:57;6.50;;;2.20;;
68910;SDS011;55953;51.650;-0.522;2024-02-26T04:11:25;4.50;;;1.70;;
68910;SDS011;55953;51.650;-0.522;2024-02-26T04:13:53;4.00;;;1.80;;
68910;SDS011;55953;51.650;-0.522;2024-02-26T04:16:20;3.90;;;1.60;;
68910;SDS011;55953;51.650;-0.522;2024-02-26T04:18:48;3.70;;;1.50;;
68910;SDS011;55953;51.650;-0.522;2024-02-26T04:21:17;5.00;;;2.20;;
68910;SDS011;55953;51.650;-0.522;2024-02-26T04:23:45;5.60;;;1.80;;
68910;SDS011;55953;51.650;-0.522;2024-02-26T04:26:12;5.40;;;1.60;;
68910;SDS011;55953;51.650;-0.522;2024-02-26T04:28:40;4.80;;;1.80;;
68910;SDS011;55953;51.650;-0.522;2024-02-26T04:31:08;5.10;;;1.70;;
68910;SDS011;55953;51.650;-0.522;2024-02-26T04:33:36;3.40;;;1.50;;
68910;SDS011;55953;51.650;-0.522;2024-02-26T04:36:04;5.70;;;1.80;;
68910;SDS011;55953;51.650;-0.522;2024-02-26T04:38:32;3.30;;;1.60;;
68910;SDS011;55953;51.650;-0.522;2024-02-26T04:41:00;2.80;;;1.60;;
68910;SDS011;55953;51.650;-0.522;2024-02-26T04:43:28;3.10;;;1.40;;
68910;SDS011;55953;51.650;-0.522;2024-02-26T04:45:56;3.00;;;1.40;;
68910;SDS011;55953;51.650;-0.522;2024-02-26T04:48:26;2.10;;;1.30;;
68910;SDS011;55953;51.650;-0.522;2024-02-26T04:50:55;3.90;;;1.40;;
68910;SDS011;55953;51.650;-0.522;2024-02-26T04:53:23;3.90;;;1.60;;
68910;SDS011;55953;51.650;-0.522;2024-02-26T04:55:51;3.60;;;1.40;;
68910;SDS011;55953;51.650;-0.522;2024-02-26T04:58:19;3.70;;;1.20;;
68910;SDS011;55953;51.650;-0.522;2024-02-26T05:00:47;3.80;;;1.30;;
68910;SDS011;55953;51.650;-0.522;2024-02-26T05:03:15;3.00;;;1.10;;
68910;SDS011;55953;51.650;-0.522;2024-02-26T05:05:43;2.70;;;1.00;;
68910;SDS011;55953;51.650;-0.522;2024-02-26T05:08:12;2.10;;;1.10;;
68910;SDS011;55953;51.650;-0.522;2024-02-26T05:10:40;7.00;;;1.30;;
68910;SDS011;55953;51.650;-0.522;2024-02-26T05:13:09;6.00;;;2.00;;
68910;SDS011;55953;51.650;-0.522;2024-02-26T05:15:37;2.70;;;1.10;;
68910;SDS011;55953;51.650;-0.522;2024-02-26T05:18:05;2.80;;;1.00;;
68910;SDS011;55953;51.650;-0.522;2024-02-26T05:20:33;3.40;;;1.10;;
68910;SDS011;55953;51.650;-0.522;2024-02-26T05:23:03;3.40;;;1.10;;
68910;SDS011;55953;51.650;-0.522;2024-02-26T05:25:31;3.40;;;1.10;;
68910;SDS011;55953;51.650;-0.522;2024-02-26T05:27:59;5.30;;;1.20;;
68910;SDS011;55953;51.650;-0.522;2024-02-26T05:30:27;3.10;;;1.30;;
68910;SDS011;55953;51.650;-0.522;2024-02-26T05:32:56;3.40;;;1.00;;
68910;SDS011;55953;51.650;-0.522;2024-02-26T05:35:25;3.20;;;1.00;;
68910;SDS011;55953;51.650;-0.522;2024-02-26T05:37:53;4.80;;;1.10;;
68910;SDS011;55953;51.650;-0.522;2024-02-26T05:40:21;2.20;;;1.00;;
68910;SDS011;55953;51.650;-0.522;2024-02-26T05:42:49;4.10;;;1.20;;
68910;SDS011;55953;51.650;-0.522;2024-02-26T05:45:17;3.20;;;1.10;;
68910;SDS011;55953;51.650;-0.522;2024-02-26T05:47:45;3.80;;;1.00;;
68910;SDS011;55953;51.650;-0.522;2024-02-26T05:50:13;4.00;;;0.80;;
68910;SDS011;55953;51.650;-0.522;2024-02-26T05:52:43;4.00;;;1.00;;
68910;SDS011;55953;51.650;-0.522;2024-02-26T05:55:11;3.70;;;1.10;;
68910;SDS011;55953;51.650;-0.522;2024-02-26T05:57:39;5.60;;;1.10;;
68910;SDS011;55953;51.650;-0.522;2024-02-26T06:00:07;2.80;;;0.90;;
68910;SDS011;55953;51.650;-0.522;2024-02-26T06:02:38;3.60;;;1.30;;
68910;SDS011;55953;51.650;-0.522;2024-02-26T06:05:07;4.30;;;1.00;;
68910;SDS011;55953;51.650;-0.522;2024-02-26T06:07:36;4.50;;;1.00;;
68910;SDS011;55953;51.650;-0.522;2024-02-26T06:10:05;5.50;;;0.90;;
68910;SDS011;55953;51.650;-0.522;2024-02-26T06:12:36;4.60;;;1.20;;
68910;SDS011;55953;51.650;-0.522;2024-02-26T06:15:04;3.10;;;1.30;;
68910;SDS011;55953;51.650;-0.522;2024-02-26T06:17:33;4.90;;;1.10;;
68910;SDS011;55953;51.650;-0.522;2024-02-26T06:20:01;3.80;;;1.40;;
68910;SDS011;55953;51.650;-0.522;2024-02-26T06:22:32;4.20;;;1.10;;
68910;SDS011;55953;51.650;-0.522;2024-02-26T06:25:00;4.50;;;1.30;;
68910;SDS011;55953;51.650;-0.522;2024-02-26T06:27:28;4.80;;;0.90;;
68910;SDS011;55953;51.650;-0.522;2024-02-26T06:29:56;5.00;;;1.10;;
68910;SDS011;55953;51.650;-0.522;2024-02-26T06:32:24;4.10;;;1.20;;
68910;SDS011;55953;51.650;-0.522;2024-02-26T06:34:55;4.30;;;1.30;;
68910;SDS011;55953;51.650;-0.522;2024-02-26T06:37:23;3.00;;;0.90;;
68910;SDS011;55953;51.650;-0.522;2024-02-26T06:39:52;2.90;;;1.00;;
68910;SDS011;55953;51.650;-0.522;2024-02-26T06:42:20;3.30;;;0.90;;
68910;SDS011;55953;51.650;-0.522;2024-02-26T06:44:48;4.90;;;1.10;;
68910;SDS011;55953;51.650;-0.522;2024-02-26T06:47:16;3.90;;;1.10;;
68910;SDS011;55953;51.650;-0.522;2024-02-26T06:49:44;6.10;;;1.20;;
68910;SDS011;55953;51.650;-0.522;2024-02-26T06:52:12;2.90;;;0.90;;
68910;SDS011;55953;51.650;-0.522;2024-02-26T06:54:40;3.30;;;1.00;;
68910;SDS011;55953;51.650;-0.522;2024-02-26T06:57:09;3.10;;;1.10;;
68910;SDS011;55953;51.650;-0.522;2024-02-26T06:59:37;3.10;;;1.00;;
68910;SDS011;55953;51.650;-0.522;2024-02-26T07:02:05;4.20;;;1.00;;
68910;SDS011;55953;51.650;-0.522;2024-02-26T07:04:33;3.00;;;0.90;;
68910;SDS011;55953;51.650;-0.522;2024-02-26T07:07:01;3.10;;;1.00;;
68910;SDS011;55953;51.650;-0.522;2024-02-26T07:09:29;3.50;;;0.90;;
68910;SDS011;55953;51.650;-0.522;2024-02-26T07:11:57;5.30;;;1.20;;
68910;SDS011;55953;51.650;-0.522;2024-02-26T07:14:28;1.80;;;1.00;;
68910;SDS011;55953;51.650;-0.522;2024-02-26T07:16:56;3.80;;;1.00;;
68910;SDS011;55953;51.650;-0.522;2024-02-26T07:19:24;3.50;;;1.10;;
68910;SDS011;55953;51.650;-0.522;2024-02-26T07:21:52;3.70;;;1.10;;
68910;SDS011;55953;51.650;-0.522;2024-02-26T07:24:20;4.50;;;1.20;;
68910;SDS011;55953;51.650;-0.522;2024-02-26T07:26:48;2.50;;;1.00;;
68910;SDS011;55953;51.650;-0.522;2024-02-26T07:29:16;3.20;;;1.00;;
68910;SDS011;55953;51.650;-0.522;2024-02-26T07:31:44;4.30;;;1.00;;
68910;SDS011;55953;51.650;-0.522;2024-02-26T07:34:12;3.40;;;0.90;;
68910;SDS011;55953;51.650;-0.522;2024-02-26T07:36:40;2.90;;;0.90;;
68910;SDS011;55953;51.650;-0.522;2024-02-26T07:39:08;5.90;;;2.00;;
68910;SDS011;55953;51.650;-0.522;2024-02-26T07:41:36;2.50;;;1.00;;
68910;SDS011;55953;51.650;-0.522;2024-02-26T07:44:06;2.70;;;1.30;;
68910;SDS011;55953;51.650;-0.522;2024-02-26T07:46:33;4.40;;;1.30;;
68910;SDS011;55953;51.650;-0.522;2024-02-26T07:49:01;2.40;;;1.10;;
68910;SDS011;55953;51.650;-0.522;2024-02-26T07:51:29;5.40;;;1.20;;
68910;SDS011;55953;51.650;-0.522;2024-02-26T07:53:57;2.40;;;1.00;;
68910;SDS011;55953;51.650;-0.522;2024-02-26T07:56:25;3.00;;;0.90;;
68910;SDS011;55953;51.650;-0.522;2024-02-26T07:58:53;3.80;;;1.10;;
68910;SDS011;55953;51.650;-0.522;2024-02-26T08:01:21;3.00;;;1.10;;
68910;SDS011;55953;51.650;-0.522;2024-02-26T08:03:50;3.50;;;1.20;;
68910;SDS011;55953;51.650;-0.522;2024-02-26T08:06:18;2.90;;;1.30;;
68910;SDS011;55953;51.650;-0.522;2024-02-26T08:08:47;3.10;;;1.20;;
68910;SDS011;55953;51.650;-0.522;2024-02-26T08:11:15;3.30;;;0.80;;
68910;SDS011;55953;51.650;-0.522;2024-02-26T08:13:43;5.50;;;1.20;;
68910;SDS011;55953;51.650;-0.522;2024-02-26T08:16:11;5.60;;;1.30;;
68910;SDS011;55953;51.650;-0.522;2024-02-26T08:18:39;4.80;;;1.00;;
68910;SDS011;55953;51.650;-0.522;2024-02-26T08:21:08;4.30;;;0.90;;
68910;SDS011;55953;51.650;-0.522;2024-02-26T08:23:37;4.90;;;1.00;;
68910;SDS011;55953;51.650;-0.522;2024-02-26T08:26:05;2.20;;;0.80;;
68910;SDS011;55953;51.650;-0.522;2024-02-26T08:28:36;3.40;;;0.80;;
68910;SDS011;55953;51.650;-0.522;2024-02-26T08:31:04;3.40;;;1.00;;
68910;SDS011;55953;51.650;-0.522;2024-02-26T08:33:33;2.20;;;0.70;;
68910;SDS011;55953;51.650;-0.522;2024-02-26T08:36:06;1.60;;;0.70;;
68910;SDS011;55953;51.650;-0.522;2024-02-26T08:38:37;3.30;;;1.10;;
68910;SDS011;55953;51.650;-0.522;2024-02-26T08:41:04;1.80;;;0.60;;
68910;SDS011;55953;51.650;-0.522;2024-02-26T08:43:32;4.10;;;0.70;;
68910;SDS011;55953;51.650;-0.522;2024-02-26T08:46:00;2.80;;;0.80;;
68910;SDS011;55953;51.650;-0.522;2024-02-26T08:48:28;2.20;;;0.70;;
68910;SDS011;55953;51.650;-0.522;2024-02-26T08:50:56;3.20;;;0.70;;
68910;SDS011;55953;51.650;-0.522;2024-02-26T08:53:24;3.30;;;0.80;;
68910;SDS011;55953;51.650;-0.522;2024-02-26T08:56:07;3.90;;;0.70;;
68910;SDS011;55953;51.650;-0.522;2024-02-26T08:58:36;3.20;;;0.80;;
68910;SDS011;55953;51.650;-0.522;2024-02-26T09:01:03;1.30;;;0.70;;
68910;SDS011;55953;51.650;-0.522;2024-02-26T09:03:31;2.90;;;0.80;;
68910;SDS011;55953;51.650;-0.522;2024-02-26T09:06:00;4.60;;;0.90;;
68910;SDS011;55953;51.650;-0.522;2024-02-26T09:08:28;3.40;;;0.90;;
68910;SDS011;55953;51.650;-0.522;2024-02-26T09:10:56;2.00;;;0.80;;
68910;SDS011;55953;51.650;-0.522;2024-02-26T09:13:24;2.80;;;0.80;;
68910;SDS011;55953;51.650;-0.522;2024-02-26T09:15:52;2.80;;;0.70;;
68910;SDS011;55953;51.650;-0.522;2024-02-26T09:18:19;2.00;;;0.80;;
68910;SDS011;55953;51.650;-0.522;2024-02-26T09:20:48;2.70;;;0.80;;
68910;SDS011;55953;51.650;-0.522;2024-02-26T09:23:15;2.40;;;0.70;;
68910;SDS011;55953;51.650;-0.522;2024-02-26T09:25:43;4.00;;;0.80;;
68910;SDS011;55953;51.650;-0.522;2024-02-26T09:28:11;1.60;;;0.70;;
68910;SDS011;55953;51.650;-0.522;2024-02-26T09:30:39;3.90;;;0.80;;
68910;SDS011;55953;51.650;-0.522;2024-02-26T09:33:07;2.90;;;0.90;;
68910;SDS011;55953;51.650;-0.522;2024-02-26T09:35:36;1.60;;;0.80;;
68910;SDS011;55953;51.650;-0.522;2024-02-26T09:38:04;1.00;;;0.60;;
68910;SDS011;55953;51.650;-0.522;2024-02-26T09:40:34;2.60;;;0.80;;
68910;SDS011;55953;51.650;-0.522;2024-02-26T09:43:04;3.70;;;0.80;;
68910;SDS011;55953;51.650;-0.522;2024-02-26T09:45:34;4.60;;;0.90;;
68910;SDS011;55953;51.650;-0.522;2024-02-26T09:48:04;2.00;;;0.60;;
68910;SDS011;55953;51.650;-0.522;2024-02-26T09:50:36;3.10;;;0.80;;
68910;SDS011;55953;51.650;-0.522;2024-02-26T09:53:05;2.80;;;0.70;;
68910;SDS011;55953;51.650;-0.522;2024-02-26T09:55:37;2.30;;;0.70;;
68910;SDS011;55953;51.650;-0.522;2024-02-26T09:58:06;1.10;;;0.70;;
68910;SDS011;55953;51.650;-0.522;2024-02-26T10:00:37;3.60;;;1.40;;
68910;SDS011;55953;51.650;-0.522;2024-02-26T10:03:11;1.60;;;1.00;;
68910;SDS011;55953;51.650;-0.522;2024-02-26T10:05:44;2.40;;;0.90;;
68910;SDS011;55953;51.650;-0.522;2024-02-26T10:08:12;2.40;;;0.70;;
68910;SDS011;55953;51.650;-0.522;2024-02-26T10:10:41;2.90;;;0.80;;
68910;SDS011;55953;51.650;-0.522;2024-02-26T10:13:10;2.50;;;0.70;;
68910;SDS011;55953;51.650;-0.522;2024-02-26T10:15:39;2.70;;;0.90;;
68910;SDS011;55953;51.650;-0.522;2024-02-26T10:18:07;2.60;;;0.90;;
68910;SDS011;55953;51.650;-0.522;2024-02-26T10:20:35;2.00;;;0.80;;
68910;SDS011;55953;51.650;-0.522;2024-02-26T10:23:04;3.00;;;0.90;;
68910;SDS011;55953;51.650;-0.522;2024-02-26T10:25:35;2.60;;;0.90;;
68910;SDS011;55953;51.650;-0.522;2024-02-26T10:28:03;5.40;;;1.20;;
68910;SDS011;55953;51.650;-0.522;2024-02-26T10:30:36;3.30;;;1.10;;
68910;SDS011;55953;51.650;-0.522;2024-02-26T10:33:07;5.30;;;1.00;;
68910;SDS011;55953;51.650;-0.522;2024-02-26T10:35:35;4.40;;;1.00;;
68910;SDS011;55953;51.650;-0.522;2024-02-26T10:38:07;3.30;;;1.10;;
68910;SDS011;55953;51.650;-0.522;2024-02-26T10:40:35;5.40;;;1.20;;
68910;SDS011;55953;51.650;-0.522;2024-02-26T10:43:03;3.10;;;0.90;;
68910;SDS011;55953;51.650;-0.522;2024-02-26T10:45:31;4.40;;;1.10;;
68910;SDS011;55953;51.650;-0.522;2024-02-26T10:48:04;3.80;;;0.90;;
68910;SDS011;55953;51.650;-0.522;2024-02-26T10:50:32;2.60;;;1.10;;
68910;SDS011;55953;51.650;-0.522;2024-02-26T10:53:03;4.00;;;0.80;;
68910;SDS011;55953;51.650;-0.522;2024-02-26T10:55:35;3.30;;;1.10;;
68910;SDS011;55953;51.650;-0.522;2024-02-26T10:58:07;5.00;;;0.90;;
68910;SDS011;55953;51.650;-0.522;2024-02-26T11:03:08;2.00;;;1.20;;
68910;SDS011;55953;51.650;-0.522;2024-02-26T11:05:39;4.00;;;0.80;;
68910;SDS011;55953;51.650;-0.522;2024-02-26T11:08:10;3.80;;;0.90;;
68910;SDS011;55953;51.650;-0.522;2024-02-26T11:10:40;3.30;;;1.10;;
68910;SDS011;55953;51.650;-0.522;2024-02-26T11:13:10;4.20;;;0.90;;
68910;SDS011;55953;51.650;-0.522;2024-02-26T11:15:41;2.40;;;0.80;;
68910;SDS011;55953;51.650;-0.522;2024-02-26T11:18:12;3.50;;;0.90;;
68910;SDS011;55953;51.650;-0.522;2024-02-26T11:20:41;2.60;;;0.70;;
68910;SDS011;55953;51.650;-0.522;2024-02-26T11:23:11;3.70;;;0.90;;
68910;SDS011;55953;51.650;-0.522;2024-02-26T11:25:39;4.30;;;0.80;;
68910;SDS011;55953;51.650;-0.522;2024-02-26T11:28:15;3.30;;;0.90;;
68910;SDS011;55953;51.650;-0.522;2024-02-26T11:30:48;3.70;;;1.10;;
68910;SDS011;55953;51.650;-0.522;2024-02-26T11:33:17;1.80;;;0.90;;
68910;SDS011;55953;51.650;-0.522;2024-02-26T11:35:48;2.70;;;0.80;;
68910;SDS011;55953;51.650;-0.522;2024-02-26T11:38:19;1.00;;;0.50;;
68910;SDS011;55953;51.650;-0.522;2024-02-26T11:40:50;4.00;;;1.00;;
68910;SDS011;55953;51.650;-0.522;2024-02-26T11:43:22;2.60;;;0.90;;
68910;SDS011;55953;51.650;-0.522;2024-02-26T11:45:51;3.20;;;0.70;;
68910;SDS011;55953;51.650;-0.522;2024-02-26T11:48:22;1.30;;;0.70;;
68910;SDS011;55953;51.650;-0.522;2024-02-26T11:50:54;8.60;;;0.90;;
68910;SDS011;55953;51.650;-0.522;2024-02-26T11:53:26;4.60;;;1.10;;
68910;SDS011;55953;51.650;-0.522;2024-02-26T11:56:21;2.70;;;0.90;;
68910;SDS011;55953;51.650;-0.522;2024-02-26T11:59:10;2.70;;;0.90;;
68910;SDS011;55953;51.650;-0.522;2024-02-26T12:01:48;1.90;;;0.70;;
68910;SDS011;55953;51.650;-0.522;2024-02-26T12:04:19;2.00;;;0.90;;
68910;SDS011;55953;51.650;-0.522;2024-02-26T12:06:55;1.70;;;0.60;;
68910;SDS011;55953;51.650;-0.522;2024-02-26T12:09:38;2.70;;;0.70;;
68910;SDS011;55953;51.650;-0.522;2024-02-26T12:12:10;2.00;;;0.70;;
68910;SDS011;55953;51.650;-0.522;2024-02-26T12:17:25;1.10;;;0.50;;
68910;SDS011;55953;51.650;-0.522;2024-02-26T12:19:53;1.90;;;0.60;;
68910;SDS011;55953;51.650;-0.522;2024-02-26T12:22:23;4.60;;;1.00;;
68910;SDS011;55953;51.650;-0.522;2024-02-26T12:24:59;2.20;;;0.80;;
68910;SDS011;55953;51.650;-0.522;2024-02-26T12:27:28;1.80;;;0.80;;
68910;SDS011;55953;51.650;-0.522;2024-02-26T12:29:56;2.30;;;0.70;;
68910;SDS011;55953;51.650;-0.522;2024-02-26T12:32:24;2.80;;;0.80;;
68910;SDS011;55953;51.650;-0.522;2024-02-26T12:34:52;4.10;;;0.80;;
68910;SDS011;55953;51.650;-0.522;2024-02-26T12:37:20;2.60;;;0.70;;
68910;SDS011;55953;51.650;-0.522;2024-02-26T12:39:49;2.60;;;0.60;;
68910;SDS011;55953;51.650;-0.522;2024-02-26T12:42:17;3.30;;;0.70;;
68910;SDS011;55953;51.650;-0.522;2024-02-26T12:44:46;3.20;;;0.80;;
68910;SDS011;55953;51.650;-0.522;2024-02-26T12:47:14;1.50;;;0.60;;
68910;SDS011;55953;51.650;-0.522;2024-02-26T12:49:47;2.70;;;0.80;;
68910;SDS011;55953;51.650;-0.522;2024-02-26T12:52:16;2.20;;;1.10;;
68910;SDS011;55953;51.650;-0.522;2024-02-26T12:54:44;2.80;;;0.80;;
68910;SDS011;55953;51.650;-0.522;2024-02-26T12:57:13;4.20;;;0.90;;
68910;SDS011;55953;51.650;-0.522;2024-02-26T12:59:41;1.40;;;0.80;;
68910;SDS011;55953;51.650;-0.522;2024-02-26T13:02:09;5.20;;;0.90;;
68910;SDS011;55953;51.650;-0.522;2024-02-26T13:04:39;4.40;;;1.00;;
68910;SDS011;55953;51.650;-0.522;2024-02-26T13:07:08;4.00;;;1.10;;
68910;SDS011;55953;51.650;-0.522;2024-02-26T13:09:38;4.40;;;1.00;;
68910;SDS011;55953;51.650;-0.522;2024-02-26T13:12:07;3.90;;;0.80;;
68910;SDS011;55953;51.650;-0.522;2024-02-26T13:14:36;6.10;;;0.80;;
68910;SDS011;55953;51.650;-0.522;2024-02-26T13:17:04;3.60;;;0.90;;
68910;SDS011;55953;51.650;-0.522;2024-02-26T13:19:32;5.90;;;1.00;;
68910;SDS011;55953;51.650;-0.522;2024-02-26T13:22:07;3.40;;;0.90;;
68910;SDS011;55953;51.650;-0.522;2024-02-26T13:24:35;3.90;;;0.70;;
68910;SDS011;55953;51.650;-0.522;2024-02-26T13:27:04;4.50;;;0.90;;
68910;SDS011;55953;51.650;-0.522;2024-02-26T13:29:34;5.10;;;1.30;;
68910;SDS011;55953;51.650;-0.522;2024-02-26T13:32:03;2.50;;;0.80;;
68910;SDS011;55953;51.650;-0.522;2024-02-26T13:34:31;2.60;;;0.80;;
68910;SDS011;55953;51.650;-0.522;2024-02-26T13:37:01;2.40;;;0.70;;
68910;SDS011;55953;51.650;-0.522;2024-02-26T13:39:29;4.10;;;0.90;;
68910;SDS011;55953;51.650;-0.522;2024-02-26T13:41:58;2.50;;;0.80;;
68910;SDS011;55953;51.650;-0.522;2024-02-26T13:44:26;4.10;;;0.80;;
68910;SDS011;55953;51.650;-0.522;2024-02-26T13:46:54;6.70;;;1.10;;
68910;SDS011;55953;51.650;-0.522;2024-02-26T13:49:22;2.20;;;0.80;;
68910;SDS011;55953;51.650;-0.522;2024-02-26T13:51:50;2.50;;;0.90;;
68910;SDS011;55953;51.650;-0.522;2024-02-26T13:54:18;3.90;;;0.90;;
68910;SDS011;55953;51.650;-0.522;2024-02-26T13:56:46;4.10;;;1.30;;
68910;SDS011;55953;51.650;-0.522;2024-02-26T13:59:15;3.00;;;0.90;;
68910;SDS011;55953;51.650;-0.522;2024-02-26T14:01:43;3.50;;;0.70;;
68910;SDS011;55953;51.650;-0.522;2024-02-26T14:04:11;5.80;;;1.20;;
68910;SDS011;55953;51.650;-0.522;2024-02-26T14:06:39;2.80;;;0.70;;
68910;SDS011;55953;51.650;-0.522;2024-02-26T14:09:07;3.40;;;0.80;;
68910;SDS011;55953;51.650;-0.522;2024-02-26T14:11:37;2.20;;;1.00;;
68910;SDS011;55953;51.650;-0.522;2024-02-26T14:14:07;2.30;;;0.70;;
68910;SDS011;55953;51.650;-0.522;2024-02-26T14:16:35;1.50;;;0.70;;
68910;SDS011;55953;51.650;-0.522;2024-02-26T14:19:03;1.20;;;0.70;;
68910;SDS011;55953;51.650;-0.522;2024-02-26T14:21:32;3.20;;;0.80;;
68910;SDS011;55953;51.650;-0.522;2024-02-26T14:24:00;2.50;;;0.80;;
68910;SDS011;55953;51.650;-0.522;2024-02-26T14:26:28;1.80;;;0.90;;
68910;SDS011;55953;51.650;-0.522;2024-02-26T14:28:56;3.00;;;0.70;;
68910;SDS011;55953;51.650;-0.522;2024-02-26T14:31:24;2.40;;;0.90;;
68910;SDS011;55953;51.650;-0.522;2024-02-26T14:33:53;3.80;;;1.00;;
68910;SDS011;55953;51.650;-0.522;2024-02-26T14:36:22;1.40;;;0.80;;
68910;SDS011;55953;51.650;-0.522;2024-02-26T14:38:51;3.80;;;0.80;;
68910;SDS011;55953;51.650;-0.522;2024-02-26T14:41:19;2.80;;;0.80;;
68910;SDS011;55953;51.650;-0.522;2024-02-26T14:43:47;3.10;;;1.00;;
68910;SDS011;55953;51.650;-0.522;2024-02-26T14:46:15;2.90;;;0.80;;
68910;SDS011;55953;51.650;-0.522;2024-02-26T14:48:43;3.40;;;1.00;;